T79 weather

Public forecast

Using degrees Fahrenheit for public forecast. Weather courtesy of forecast.io.

Closest aviation weather report (METAR) to Skyway Manor Airport

Closest report is Pearland Regional Airport, 4.9 nm (9.2 km) ESE. Retrieved 2020/08/09 00:53 UTC (1 hour ago):

KLVJ 090053Z AUTO 17006KT 10SM CLR 31/23 A3008 RMK AO2 LTG DSNT N SLP186 T03110233

Closest aviation forecast (TAF) to Skyway Manor Airport

Closest forecast is William P Hobby Airport, 6.0 nm (11.0 km) NNE. Retrieved 2020-08-09 00:42 UTC (1 hour ago):

TAF KHOU 082339Z 0900/0924 13011KT P6SM SCT040 BKN250 FM090300 VRB04KT P6SM FEW250 FM091300 20004KT P6SM SCT025 FM091500 18007KT P6SM VCSH SCT035 FM091600 VRB07KT P6SM VCTS BKN035CB OVC250 FM092000 17008KT P6SM SCT040 BKN250